Time;durP1;ratioP1;P1;durP2;ratioP2;P2;SDS_P1;SDS_P2;PMS_P1;PMS_P2;Temp;Humidity;BMP_temperature;BMP_pressure;BME280_temperature;BME280_humidity;BME280_pressure;Samples;Min_cycle;Max_cycle;Signal;HPM_P1;HPM_P2
2022/06/15 00:03:40;;;;;;;8.30;4.05;;;;;;;16.43;56.12;100404.19;5018568;27;20411;-47
2022/06/15 00:06:12;;;;;;;11.15;3.80;;;;;;;16.36;56.60;100405.22;5001082;28;20074;-42
2022/06/15 00:11:29;;;;;;;9.80;4.15;;;;;;;16.24;56.69;100398.47;5002498;28;20050;-49
2022/06/15 00:13:59;;;;;;;7.80;4.10;;;;;;;16.19;57.11;100403.78;5001358;28;20433;-45
2022/06/15 00:16:27;;;;;;;8.68;4.20;;;;;;;16.16;57.07;100396.03;4997294;28;20058;-42
2022/06/15 00:18:55;;;;;;;8.20;3.83;;;;;;;16.13;56.60;100400.44;5017453;28;20042;-42
2022/06/15 00:21:23;;;;;;;12.20;4.55;;;;;;;16.10;56.97;100397.88;5008950;28;20465;-48
2022/06/15 00:23:52;;;;;;;10.38;4.00;;;;;;;16.04;57.38;100394.50;5002618;28;20049;-43
2022/06/15 00:26:38;;;;;;;7.57;3.90;;;;;;;15.97;57.38;100386.84;5003412;28;20103;-47
2022/06/15 00:29:06;;;;;;;6.85;4.03;;;;;;;15.92;57.04;100387.78;5000627;28;20050;-46
2022/06/15 00:31:35;;;;;;;7.43;3.88;;;;;;;15.89;57.48;100385.22;4997655;28;20093;-43
2022/06/15 00:34:05;;;;;;;10.02;3.65;;;;;;;15.85;57.20;100394.00;4996615;28;20144;-45
2022/06/15 00:36:33;;;;;;;8.70;4.40;;;;;;;15.80;57.53;100395.81;4999775;28;20194;-44
2022/06/15 00:39:00;;;;;;;10.55;3.85;;;;;;;15.77;57.62;100398.50;5001297;28;20045;-42
2022/06/15 00:51:59;;;;;;;9.13;4.60;;;;;;;15.79;58.45;100397.59;5007819;28;20419;-47
2022/06/15 00:54:26;;;;;;;8.45;4.78;;;;;;;15.66;58.14;100394.34;4985484;28;20058;-43
2022/06/15 00:56:54;;;;;;;7.47;3.88;;;;;;;15.60;58.17;100394.44;4986282;28;20058;-43
2022/06/15 01:04:47;;;;;;;8.55;6.03;;;;;;;15.40;58.64;100387.81;5062428;27;20395;-44
2022/06/15 01:07:35;;;;;;;13.27;6.07;;;;;;;15.34;58.38;100381.84;5054746;28;20152;-44
2022/06/15 01:10:17;;;;;;;9.30;5.60;;;;;;;15.33;58.36;100380.97;5057547;28;20547;-47
2022/06/15 01:13:23;;;;;;;7.82;5.20;;;;;;;15.20;58.63;100384.69;5055795;28;20043;-46
2022/06/15 05:16:20;;;;;;;9.40;5.43;;;;;;;14.03;64.30;100405.38;5029480;27;20430;-45
2022/06/15 05:18:48;;;;;;;11.23;6.60;;;;;;;14.12;63.60;100415.69;5028256;28;20519;-42
2022/06/15 05:21:14;;;;;;;9.48;4.95;;;;;;;14.23;64.05;100422.53;5071758;28;20048;-44
2022/06/15 05:23:41;;;;;;;9.57;6.78;;;;;;;14.25;63.18;100426.81;5056132;28;20418;-42
2022/06/15 05:26:08;;;;;;;9.77;4.60;;;;;;;14.29;64.07;100422.47;5050513;28;20049;-43
2022/06/15 05:28:34;;;;;;;8.60;4.47;;;;;;;14.35;63.53;100426.69;5055807;28;20130;-46
2022/06/15 05:31:03;;;;;;;10.18;4.55;;;;;;;14.44;62.73;100421.41;5044544;28;20083;-43
2022/06/15 05:33:32;;;;;;;8.85;4.55;;;;;;;14.57;63.29;100427.31;5046096;28;20168;-44
2022/06/15 05:36:02;;;;;;;9.15;4.63;;;;;;;14.70;63.80;100421.94;5042951;28;20045;-45
2022/06/15 05:38:29;;;;;;;10.90;5.72;;;;;;;14.78;63.39;100426.19;5042344;28;20045;-45
2022/06/15 05:40:55;;;;;;;9.60;4.85;;;;;;;14.85;62.81;100431.28;5055336;28;20505;-44
2022/06/15 05:43:22;;;;;;;10.10;5.15;;;;;;;14.85;62.59;100421.75;5053941;28;20126;-47
2022/06/15 05:45:48;;;;;;;10.52;4.65;;;;;;;14.95;62.41;100426.81;5047733;28;20048;-44
2022/06/15 05:48:15;;;;;;;8.18;4.93;;;;;;;15.11;62.52;100423.09;5042472;28;20057;-43
2022/06/15 05:50:41;;;;;;;10.93;4.18;;;;;;;15.29;62.51;100421.06;5048939;28;20066;-48
2022/06/15 05:53:08;;;;;;;7.90;4.63;;;;;;;15.42;61.80;100417.38;5049376;28;20080;-46
2022/06/15 05:55:35;;;;;;;8.57;4.32;;;;;;;15.59;61.87;100417.97;5057694;28;20098;-49
2022/06/15 05:58:03;;;;;;;7.88;3.88;;;;;;;15.70;61.86;100402.13;5054652;28;20098;-45
2022/06/15 06:00:30;;;;;;;10.65;4.20;;;;;;;15.86;62.01;100416.59;5045575;28;20053;-43
2022/06/15 06:02:56;;;;;;;7.60;4.30;;;;;;;16.02;61.42;100421.56;5049620;28;20090;-50
2022/06/15 06:05:23;;;;;;;7.70;4.05;;;;;;;16.18;61.94;100416.91;5069744;28;20058;-47
2022/06/15 06:07:51;;;;;;;9.80;5.00;;;;;;;16.37;61.17;100417.38;5071344;28;20048;-47
2022/06/15 06:10:17;;;;;;;10.25;5.40;;;;;;;16.56;61.60;100417.81;5069349;28;20511;-51
2022/06/15 06:12:44;;;;;;;9.32;4.47;;;;;;;16.77;61.30;100412.16;5081950;28;20492;-45
2022/06/15 06:15:10;;;;;;;9.60;4.50;;;;;;;16.92;61.22;100422.28;5074186;28;20044;-47
2022/06/15 06:17:37;;;;;;;9.40;4.68;;;;;;;17.05;60.88;100424.59;5077294;28;20044;-45
2022/06/15 06:20:04;;;;;;;7.30;4.38;;;;;;;17.20;60.85;100426.88;5083199;28;20093;-47
2022/06/15 06:22:31;;;;;;;11.43;4.50;;;;;;;17.39;60.37;100420.34;5080791;28;20101;-44
2022/06/15 06:24:57;;;;;;;11.13;3.97;;;;;;;17.54;60.82;100417.34;5080143;28;20045;-44
2022/06/15 06:27:24;;;;;;;8.55;4.57;;;;;;;17.76;60.95;100411.50;5068059;28;20057;-44
2022/06/15 06:29:56;;;;;;;9.70;3.95;;;;;;;18.00;61.02;100416.97;5060255;28;20476;-52
2022/06/15 06:32:22;;;;;;;8.95;4.18;;;;;;;18.21;60.02;100412.91;5063958;28;20048;-49
2022/06/15 06:34:49;;;;;;;12.30;4.10;;;;;;;18.43;60.49;100422.78;5055502;28;20114;-45
2022/06/15 06:37:15;;;;;;;8.93;3.53;;;;;;;18.67;60.26;100425.56;5052851;28;20056;-47
2022/06/15 06:39:42;;;;;;;10.02;4.50;;;;;;;18.93;59.31;100430.91;5057327;28;20106;-50
2022/06/15 06:42:10;;;;;;;7.63;3.33;;;;;;;19.20;59.70;100423.97;5054210;28;20070;-46
2022/06/15 06:44:37;;;;;;;7.13;3.15;;;;;;;19.53;59.30;100428.97;5054665;28;20037;-45
2022/06/15 06:47:05;;;;;;;6.75;2.75;;;;;;;19.85;59.17;100427.91;5054232;28;20053;-48
2022/06/15 06:49:33;;;;;;;5.22;2.97;;;;;;;20.12;58.19;100435.75;5053180;28;20053;-52
2022/06/15 06:52:00;;;;;;;9.98;3.63;;;;;;;20.36;57.70;100430.50;5038956;28;20055;-46
2022/06/15 06:54:26;;;;;;;7.85;2.53;;;;;;;20.63;57.81;100432.97;5039284;28;20060;-46
2022/06/15 06:56:53;;;;;;;7.88;2.20;;;;;;;20.96;56.90;100435.25;5034485;28;20052;-51
2022/06/15 06:59:26;;;;;;;7.05;2.28;;;;;;;21.29;56.77;100445.31;5027603;28;20132;-45
2022/06/15 07:01:53;;;;;;;5.75;2.67;;;;;;;21.56;55.50;100445.09;5022446;28;20049;-48
2022/06/15 07:04:20;;;;;;;5.82;2.58;;;;;;;21.76;55.06;100453.94;5027310;28;20045;-48
2022/06/15 07:06:47;;;;;;;6.57;3.83;;;;;;;21.99;55.46;100457.38;5036491;28;20689;-52
2022/06/15 07:09:14;;;;;;;6.30;2.42;;;;;;;22.20;54.72;100463.47;5038954;28;20061;-47
2022/06/15 07:11:43;;;;;;;5.40;2.92;;;;;;;22.43;54.78;100473.88;5038441;28;20045;-46
2022/06/15 07:14:10;;;;;;;;;;;;;;;22.69;54.23;100467.41;5033704;28;20140;-50
2022/06/15 07:16:39;;;;;;;6.03;2.17;;;;;;;23.01;53.23;100466.81;5031744;28;19925;-46
2022/06/15 07:19:06;;;;;;;3.72;2.10;;;;;;;23.25;52.63;100458.63;5039934;28;20049;-45
2022/06/15 07:21:33;;;;;;;7.53;1.90;;;;;;;23.40;52.26;100461.47;5050588;28;20049;-50
2022/06/15 07:24:00;;;;;;;4.57;2.10;;;;;;;23.53;51.45;100465.19;5046853;28;20045;-48
2022/06/15 07:26:33;;;;;;;6.32;2.33;;;;;;;23.62;51.10;100467.38;5036551;28;20119;-51
2022/06/15 07:29:01;;;;;;;4.80;1.77;;;;;;;23.77;51.48;100469.31;5050575;28;20461;-48
2022/06/15 07:34:06;;;;;;;4.03;1.75;;;;;;;24.27;50.67;100467.59;5006441;27;20404;-48
2022/06/15 07:36:35;;;;;;;5.93;2.42;;;;;;;24.55;49.73;100465.25;5034115;28;20501;-48
2022/06/15 07:39:04;;;;;;;7.97;2.40;;;;;;;24.71;49.08;100460.78;5004649;28;20049;-46
2022/06/15 07:41:31;;;;;;;4.43;1.85;;;;;;;24.83;48.18;100464.56;5036501;28;20473;-46
2022/06/15 07:43:58;;;;;;;3.38;1.90;;;;;;;25.02;48.09;100466.16;5004438;28;20050;-46
2022/06/15 07:46:25;;;;;;;4.10;2.17;;;;;;;25.29;48.06;100460.22;5002611;28;20046;-48
2022/06/15 07:51:45;;;;;;;4.78;1.90;;;;;;;25.76;47.29;100461.03;5003832;28;20054;-51
2022/06/15 07:54:29;;;;;;;3.08;1.15;;;;;;;26.02;47.05;100468.34;5006099;28;20053;-44
2022/06/15 07:56:56;;;;;;;3.15;1.70;;;;;;;26.20;45.99;100457.56;5007202;28;20042;-46
2022/06/15 07:59:24;;;;;;;4.78;1.88;;;;;;;26.40;46.31;100457.16;5007431;28;20092;-47
2022/06/15 08:01:51;;;;;;;4.30;2.22;;;;;;;26.62;44.69;100462.91;4999412;28;20072;-48
2022/06/15 08:04:18;;;;;;;4.78;2.10;;;;;;;26.57;44.82;100457.88;5005768;28;20046;-49
2022/06/15 08:06:47;;;;;;;3.95;1.85;;;;;;;26.65;44.41;100463.56;5036889;28;20052;-48
2022/06/15 08:09:14;;;;;;;8.02;1.90;;;;;;;26.62;43.60;100469.09;5002324;28;20050;-49
2022/06/15 08:12:11;;;;;;;3.65;1.58;;;;;;;26.58;44.62;100462.28;5005764;28;20057;-48
2022/06/15 08:14:31;;;;;;;6.00;2.03;;;;;;;26.75;44.02;100462.97;5005338;28;20528;-49
2022/06/15 08:16:59;;;;;;;5.93;1.98;;;;;;;26.94;43.94;100460.81;5001807;28;20053;-47
2022/06/15 08:19:26;;;;;;;4.38;1.73;;;;;;;27.15;43.55;100465.69;4996104;28;20054;-51
2022/06/15 08:21:53;;;;;;;4.65;1.48;;;;;;;27.40;43.60;100461.41;4998576;28;20053;-54
2022/06/15 08:24:21;;;;;;;6.30;2.05;;;;;;;27.62;41.74;100459.94;5001725;28;20751;-49
2022/06/15 08:26:48;;;;;;;4.90;2.38;;;;;;;27.75;42.22;100459.13;5006234;28;20046;-46
2022/06/15 08:29:14;;;;;;;5.88;2.10;;;;;;;27.84;41.37;100463.81;5001219;28;20414;-51
2022/06/15 08:31:41;;;;;;;5.47;2.03;;;;;;;27.99;42.48;100461.88;5002541;28;20054;-46
2022/06/15 08:34:08;;;;;;;4.32;1.65;;;;;;;28.23;41.80;100464.63;5003351;28;20097;-53
2022/06/15 08:36:36;;;;;;;3.40;1.95;;;;;;;28.39;41.44;100452.06;5004869;28;20050;-47
2022/06/15 08:39:04;;;;;;;4.03;2.05;;;;;;;28.50;41.38;100464.63;5004578;28;20053;-48
2022/06/15 08:42:00;;;;;;;4.43;2.00;;;;;;;28.77;41.06;100466.22;5000527;28;20120;-45
2022/06/15 08:56:14;;;;;;;4.13;2.40;;;;;;;29.42;38.33;100460.56;5056236;28;20408;-48
2022/06/15 08:58:48;;;;;;;6.47;3.10;;;;;;;29.46;38.61;100462.91;5051804;28;20056;-49
2022/06/15 09:01:37;;;;;;;3.58;1.75;;;;;;;29.61;38.98;100460.91;5042466;28;20053;-53
2022/06/15 09:07:16;;;;;;;4.03;1.92;;;;;;;30.00;37.25;100465.94;5071125;27;20394;-49
2022/06/15 09:15:38;;;;;;;5.60;2.20;;;;;;;29.85;36.44;100456.44;5093774;27;20743;-52
2022/06/15 09:20:50;;;;;;;3.95;1.52;;;;;;;30.05;36.78;100457.53;5029144;28;20416;-51
2022/06/15 09:26:04;;;;;;;4.10;1.40;;;;;;;30.42;35.92;100448.41;5122632;27;21654;-46
2022/06/15 09:33:56;;;;;;;3.10;1.70;;;;;;;30.01;36.06;100451.59;5029651;28;20415;-50
2022/06/15 09:36:33;;;;;;;5.28;1.60;;;;;;;30.20;36.91;100454.66;5024466;28;20148;-47
2022/06/15 09:39:00;;;;;;;2.85;1.52;;;;;;;30.47;35.70;100462.28;5025098;28;20060;-49
2022/06/15 09:41:39;;;;;;;3.10;1.70;;;;;;;30.78;34.75;100459.81;5024717;28;20116;-52
2022/06/15 09:44:16;;;;;;;3.45;1.40;;;;;;;30.99;35.06;100466.16;5009175;28;20099;-51
2022/06/15 09:47:19;;;;;;;2.58;1.80;;;;;;;31.18;34.87;100460.13;5023896;28;20077;-45
2022/06/15 09:55:19;;;;;;;4.45;1.90;;;;;;;31.21;33.27;100450.97;5073404;27;20408;-46
2022/06/15 09:57:46;;;;;;;3.60;1.60;;;;;;;31.10;33.23;100457.25;5034168;27;20041;-52
2022/06/15 10:00:14;;;;;;;6.30;1.92;;;;;;;31.09;33.01;100463.56;5024937;28;20046;-46
2022/06/15 10:02:46;;;;;;;5.57;1.85;;;;;;;31.18;33.65;100465.47;5019340;28;20064;-47
2022/06/15 10:05:35;;;;;;;4.93;1.55;;;;;;;31.24;33.92;100461.44;5049523;28;20549;-50
2022/06/15 15:48:38;;;;;;;1.80;1.55;;;;;;;29.18;31.94;100416.97;5072275;27;20403;-48
2022/06/15 15:51:05;;;;;;;3.42;1.50;;;;;;;29.20;32.77;100425.72;5062948;28;20044;-45
2022/06/15 15:53:32;;;;;;;2.70;1.40;;;;;;;29.22;32.46;100428.28;5059500;28;20056;-48
2022/06/15 15:55:58;;;;;;;3.92;1.10;;;;;;;29.26;31.69;100419.06;5063965;28;20052;-45
2022/06/15 15:58:29;;;;;;;4.65;1.13;;;;;;;29.28;31.65;100410.97;5062666;28;20049;-44
2022/06/15 16:00:58;;;;;;;2.33;1.17;;;;;;;29.32;32.39;100420.41;5060466;28;20543;-49
2022/06/15 16:03:26;;;;;;;3.85;1.40;;;;;;;29.33;32.35;100408.78;5073328;28;20400;-49
2022/06/15 16:05:52;;;;;;;4.72;1.45;;;;;;;29.32;32.44;100396.41;5076630;28;20499;-46
2022/06/15 16:08:20;;;;;;;2.90;0.85;;;;;;;29.30;31.43;100382.34;5074462;28;20436;-47
2022/06/15 16:10:51;;;;;;;2.45;1.67;;;;;;;29.28;31.90;100369.13;5052031;28;20075;-49
2022/06/15 16:13:19;;;;;;;2.65;1.15;;;;;;;29.19;31.51;100370.69;5075253;28;20044;-48
2022/06/15 16:15:48;;;;;;;3.15;1.42;;;;;;;29.04;31.82;100361.22;5076505;28;20048;-49
2022/06/15 16:18:18;;;;;;;1.38;0.80;;;;;;;28.79;32.62;100360.34;5068522;28;20111;-49
2022/06/15 16:20:46;;;;;;;5.03;1.30;;;;;;;28.60;34.07;100367.91;5072446;28;20476;-45
2022/06/15 16:23:18;;;;;;;2.08;1.48;;;;;;;28.53;33.61;100379.16;5083835;28;20087;-48
2022/06/15 16:25:45;;;;;;;5.45;1.48;;;;;;;28.53;33.08;100368.50;5084695;28;20044;-49
2022/06/15 16:28:14;;;;;;;2.47;1.13;;;;;;;28.52;32.53;100366.78;5083542;28;20089;-53
2022/06/15 16:30:43;;;;;;;2.20;1.17;;;;;;;28.53;33.88;100379.16;5065110;28;20102;-45
2022/06/15 16:33:11;;;;;;;3.50;1.48;;;;;;;28.57;34.31;100391.28;5078016;28;20505;-46
2022/06/15 16:35:42;;;;;;;3.40;1.30;;;;;;;28.66;34.49;100395.91;5076163;28;20075;-44
2022/06/15 16:38:11;;;;;;;3.47;1.73;;;;;;;28.73;33.81;100401.63;5082147;28;20051;-48
2022/06/15 16:40:38;;;;;;;4.30;2.10;;;;;;;28.71;33.11;100401.75;5078164;28;20598;-51
2022/06/15 16:43:06;;;;;;;2.92;1.45;;;;;;;28.81;34.50;100403.75;5076271;28;20052;-46
2022/06/15 16:45:35;;;;;;;4.38;1.17;;;;;;;28.94;33.45;100399.22;5075091;28;20052;-52
2022/06/15 16:48:02;;;;;;;2.97;1.27;;;;;;;29.06;33.15;100396.59;5078007;28;20059;-47
2022/06/15 16:50:30;;;;;;;2.15;0.93;;;;;;;29.11;32.86;100397.09;5075678;28;20056;-45
2022/06/15 16:52:57;;;;;;;2.83;1.27;;;;;;;29.18;32.35;100398.31;5078563;28;20048;-46
2022/06/15 16:55:32;;;;;;;2.50;1.23;;;;;;;29.21;32.59;100390.06;5074703;28;20121;-51
2022/06/15 16:58:03;;;;;;;1.77;1.30;;;;;;;29.22;31.67;100386.44;5073434;28;20453;-48
2022/06/15 17:00:30;;;;;;;2.63;1.30;;;;;;;29.20;31.32;100393.72;5074909;28;20059;-43
2022/06/15 17:02:56;;;;;;;4.07;1.75;;;;;;;29.16;32.15;100386.94;5073381;28;20053;-51
2022/06/15 17:05:24;;;;;;;3.75;2.05;;;;;;;29.10;31.90;100387.38;5059390;28;20108;-48
2022/06/15 17:07:51;;;;;;;2.10;1.35;;;;;;;29.01;32.14;100390.75;5061315;28;20048;-46
2022/06/15 17:10:19;;;;;;;1.38;1.27;;;;;;;28.82;31.75;100384.13;5065279;28;20059;-47
2022/06/15 17:12:45;;;;;;;2.58;1.20;;;;;;;28.69;32.50;100387.69;5063998;28;20048;-49
2022/06/15 17:15:13;;;;;;;2.30;1.58;;;;;;;28.63;31.73;100390.81;5061133;28;20040;-46
2022/06/15 17:17:40;;;;;;;4.32;1.85;;;;;;;28.55;32.13;100393.19;5065327;28;20051;-46
2022/06/15 17:20:08;;;;;;;2.63;1.15;;;;;;;28.44;32.64;100397.47;5062669;28;20048;-51
2022/06/15 17:22:35;;;;;;;2.97;1.33;;;;;;;28.34;32.35;100397.31;5064162;28;20083;-50
2022/06/15 17:25:12;;;;;;;3.55;1.73;;;;;;;28.26;32.65;100406.81;5081076;28;20051;-49
2022/06/15 17:27:40;;;;;;;2.60;1.52;;;;;;;28.15;32.59;100397.78;5067376;28;20041;-50
2022/06/15 17:30:08;;;;;;;2.25;1.42;;;;;;;28.05;33.21;100396.72;5059434;28;20396;-45
2022/06/15 17:32:35;;;;;;;2.42;1.73;;;;;;;27.94;33.15;100387.72;5062052;28;20048;-44
2022/06/15 17:35:03;;;;;;;3.50;2.10;;;;;;;27.82;33.66;100391.22;5055426;28;20063;-44
2022/06/15 17:37:30;;;;;;;3.00;1.40;;;;;;;27.71;33.64;100395.50;5068811;28;20366;-52
2022/06/15 17:39:56;;;;;;;3.08;1.73;;;;;;;27.65;33.63;100390.59;5067120;28;20048;-48
2022/06/15 17:42:29;;;;;;;2.83;2.00;;;;;;;27.56;33.53;100380.56;5060693;28;20063;-49
2022/06/15 17:44:56;;;;;;;4.82;1.92;;;;;;;27.51;33.60;100377.38;5063772;28;20040;-48
2022/06/15 17:47:23;;;;;;;3.63;2.85;;;;;;;27.52;34.48;100373.78;5067764;28;20545;-45
2022/06/15 17:49:49;;;;;;;2.00;1.40;;;;;;;27.58;34.40;100368.00;5069692;28;20048;-49
2022/06/15 17:52:17;;;;;;;3.13;1.30;;;;;;;27.61;34.75;100373.13;5068018;28;20044;-47
2022/06/15 17:54:44;;;;;;;2.38;1.25;;;;;;;27.62;33.90;100369.50;5065757;28;20041;-50
2022/06/15 17:57:10;;;;;;;6.05;1.70;;;;;;;27.62;34.44;100374.81;5061875;28;20042;-50
2022/06/15 17:59:37;;;;;;;4.15;2.35;;;;;;;27.59;34.72;100380.34;5064999;28;20105;-45
2022/06/15 18:02:05;;;;;;;4.05;1.90;;;;;;;27.55;34.37;100386.84;5065396;28;20093;-52
2022/06/15 18:04:31;;;;;;;3.30;1.70;;;;;;;27.51;34.87;100393.31;5062059;28;20126;-47
2022/06/15 18:06:59;;;;;;;3.53;2.00;;;;;;;27.44;34.88;100391.09;5075876;28;20090;-50
2022/06/15 18:09:26;;;;;;;2.70;1.58;;;;;;;27.37;34.72;100392.47;5065698;28;20049;-46
2022/06/15 18:11:53;;;;;;;3.67;1.52;;;;;;;27.30;34.98;100401.81;5062845;28;21644;-47
2022/06/15 18:14:27;;;;;;;5.88;2.03;;;;;;;27.19;35.13;100406.06;5061189;28;20048;-46
2022/06/15 18:16:56;;;;;;;4.85;1.70;;;;;;;27.10;34.95;100400.50;5064243;28;20121;-46
2022/06/15 18:19:26;;;;;;;3.78;1.58;;;;;;;27.02;35.59;100401.03;5079645;28;20051;-46
2022/06/15 18:21:55;;;;;;;3.67;2.15;;;;;;;26.97;35.52;100408.44;5081916;28;20450;-51
2022/06/15 18:24:29;;;;;;;3.95;1.70;;;;;;;26.89;35.11;100398.31;5085706;28;20104;-46
2022/06/15 18:26:56;;;;;;;2.50;1.88;;;;;;;26.83;35.09;100404.88;5078090;28;20063;-47
2022/06/15 18:29:23;;;;;;;5.50;2.22;;;;;;;26.77;35.38;100399.97;5076910;28;20552;-47
2022/06/15 18:31:54;;;;;;;4.07;1.52;;;;;;;26.70;35.48;100399.53;5059347;28;20052;-47
2022/06/15 18:34:21;;;;;;;4.03;1.80;;;;;;;26.60;35.98;100409.88;5055356;28;20063;-48
2022/06/15 18:36:51;;;;;;;4.90;1.95;;;;;;;26.53;35.70;100408.59;5059514;28;20044;-45
2022/06/15 18:39:19;;;;;;;3.13;1.58;;;;;;;26.41;36.07;100410.25;5062445;28;20440;-47
2022/06/15 18:41:52;;;;;;;3.35;2.28;;;;;;;26.31;36.02;100404.66;5061124;28;20059;-44
2022/06/15 18:49:52;;;;;;;3.17;1.60;;;;;;;26.00;36.38;100417.19;5059337;28;20070;-47
2022/06/15 18:52:20;;;;;;;2.65;1.77;;;;;;;25.91;36.85;100430.03;5084298;28;20419;-50
2022/06/15 18:54:47;;;;;;;3.70;1.75;;;;;;;25.81;37.42;100423.63;5048447;28;20052;-47
2022/06/15 18:57:16;;;;;;;4.15;1.90;;;;;;;25.73;37.09;100431.19;5051947;28;20051;-45
2022/06/15 18:59:46;;;;;;;3.65;2.35;;;;;;;25.63;37.25;100426.44;5040080;28;20060;-47
2022/06/15 19:02:12;;;;;;;6.05;2.13;;;;;;;25.53;37.28;100427.91;5065983;28;20048;-48
2022/06/15 19:04:40;;;;;;;5.93;2.35;;;;;;;25.42;37.82;100428.53;5081544;28;20052;-49
2022/06/15 19:07:07;;;;;;;5.18;1.80;;;;;;;25.33;37.32;100423.78;5065184;28;20044;-49
2022/06/15 19:09:34;;;;;;;2.78;1.83;;;;;;;25.24;37.75;100420.75;5076186;28;20481;-48
2022/06/15 19:12:01;;;;;;;3.22;1.73;;;;;;;25.16;37.86;100423.84;5075624;28;20851;-47
2022/06/15 19:14:27;;;;;;;2.78;1.42;;;;;;;25.06;38.15;100427.13;5075138;28;20040;-50
2022/06/15 19:16:54;;;;;;;3.80;2.25;;;;;;;24.98;38.25;100420.47;5082077;28;20527;-50
2022/06/15 19:19:21;;;;;;;3.83;1.48;;;;;;;24.90;38.26;100428.84;5064930;28;20049;-47
2022/06/15 19:21:48;;;;;;;6.07;2.55;;;;;;;24.83;38.05;100432.78;5063394;28;20400;-46
2022/06/15 19:24:40;;;;;;;5.82;2.35;;;;;;;24.77;38.25;100435.75;5068208;28;20044;-48
2022/06/15 19:27:01;;;;;;;3.85;1.98;;;;;;;24.68;38.12;100433.63;5061300;28;20053;-50
2022/06/15 19:29:28;;;;;;;3.58;1.95;;;;;;;24.61;38.58;100428.69;5067941;28;20496;-49
2022/06/15 19:31:56;;;;;;;3.92;1.48;;;;;;;24.53;38.23;100428.25;5064314;28;20175;-52
2022/06/15 19:34:24;;;;;;;6.53;1.85;;;;;;;24.47;38.23;100425.94;5079545;28;20086;-52
2022/06/15 19:36:51;;;;;;;3.53;1.48;;;;;;;24.42;38.71;100428.00;5083383;28;20044;-46
2022/06/15 19:39:18;;;;;;;4.60;1.60;;;;;;;24.36;38.82;100427.41;5081083;28;20058;-50
2022/06/15 19:41:44;;;;;;;4.40;2.00;;;;;;;24.33;38.44;100427.56;5082027;28;20060;-45
2022/06/15 19:44:11;;;;;;;3.08;1.80;;;;;;;24.29;38.52;100428.66;5077613;28;20044;-49
2022/06/15 19:46:38;;;;;;;3.45;1.73;;;;;;;24.26;38.82;100434.13;5080332;28;20055;-47
2022/06/15 19:49:05;;;;;;;3.22;2.60;;;;;;;24.23;38.40;100431.63;5068395;28;20661;-52
2022/06/15 19:51:33;;;;;;;4.32;1.92;;;;;;;24.19;38.18;100432.75;5076431;28;20049;-49
2022/06/15 19:54:01;;;;;;;2.33;1.42;;;;;;;24.13;38.90;100434.78;5074770;28;20068;-59
2022/06/15 19:56:28;;;;;;;4.10;1.92;;;;;;;24.08;38.58;100435.94;5074185;28;20059;-46
2022/06/15 19:58:54;;;;;;;4.63;1.50;;;;;;;24.00;38.39;100431.06;5080778;28;20450;-47
2022/06/15 20:01:39;;;;;;;5.97;1.58;;;;;;;23.93;38.68;100432.31;5082126;28;20054;-51
2022/06/15 20:04:07;;;;;;;4.15;1.40;;;;;;;23.86;38.70;100435.28;5078650;28;20045;-52
2022/06/15 20:06:34;;;;;;;3.42;1.67;;;;;;;23.79;38.91;100436.56;5074430;28;20130;-48
2022/06/15 20:09:04;;;;;;;3.33;1.70;;;;;;;23.71;39.09;100438.75;5076006;28;20052;-52
2022/06/15 20:11:31;;;;;;;3.33;1.35;;;;;;;23.63;38.40;100444.41;5079033;28;20067;-47
2022/06/15 20:14:00;;;;;;;4.45;1.67;;;;;;;23.55;38.46;100436.91;5066135;28;20048;-48
2022/06/15 20:16:28;;;;;;;2.63;1.80;;;;;;;23.48;38.92;100440.78;5068832;28;20098;-51
2022/06/15 20:18:55;;;;;;;3.92;1.90;;;;;;;23.39;38.98;100441.22;5066148;28;20573;-47
2022/06/15 20:21:21;;;;;;;4.65;2.00;;;;;;;23.30;38.80;100440.72;5060663;28;20052;-53
2022/06/15 20:23:50;;;;;;;3.25;1.98;;;;;;;23.20;38.97;100442.16;5059876;28;20040;-46
2022/06/15 20:26:21;;;;;;;3.85;1.65;;;;;;;23.09;39.24;100435.59;5062497;28;20688;-51
2022/06/15 20:28:53;;;;;;;3.47;1.75;;;;;;;23.00;39.16;100443.94;5059278;28;20059;-50
2022/06/15 20:31:23;;;;;;;4.03;2.20;;;;;;;22.91;39.73;100444.41;5068793;28;20041;-49
2022/06/15 20:33:51;;;;;;;5.72;1.85;;;;;;;22.79;39.52;100452.00;5074643;28;20044;-48
2022/06/15 20:36:18;;;;;;;3.60;1.98;;;;;;;22.71;40.44;100454.16;5081114;28;20059;-48
2022/06/15 20:38:45;;;;;;;8.15;2.05;;;;;;;22.59;39.61;100456.44;5075999;28;20037;-49
2022/06/15 20:41:15;;;;;;;4.80;2.22;;;;;;;22.52;40.17;100460.25;5085891;28;20056;-51
2022/06/15 20:43:45;;;;;;;6.03;2.55;;;;;;;22.43;40.37;100465.97;5086151;28;20058;-53
2022/06/15 20:46:14;;;;;;;4.20;2.22;;;;;;;22.36;40.80;100469.81;5083946;28;20097;-51
2022/06/15 20:48:52;;;;;;;4.65;2.72;;;;;;;22.25;40.71;100473.78;5083936;28;20058;-47
2022/06/15 20:51:19;;;;;;;6.20;2.53;;;;;;;22.16;40.78;100475.03;5085928;28;20719;-45
2022/06/15 20:53:46;;;;;;;6.65;2.67;;;;;;;22.08;41.15;100485.94;5082907;28;20450;-44
2022/06/15 20:58:59;;;;;;;6.30;2.88;;;;;;;21.90;41.71;100490.25;5083510;28;20126;-44
2022/06/15 21:01:28;;;;;;;5.82;2.97;;;;;;;21.81;42.13;100486.22;5081320;28;20040;-49
2022/06/15 21:03:55;;;;;;;5.05;3.10;;;;;;;21.73;42.22;100490.94;5080487;28;20036;-46
2022/06/15 21:06:22;;;;;;;4.75;2.83;;;;;;;21.68;42.58;100487.63;5084325;28;20438;-51
2022/06/15 21:08:49;;;;;;;6.88;3.38;;;;;;;21.62;42.65;100498.44;5080037;28;20056;-47
2022/06/15 21:19:36;;;;;;;5.78;3.13;;;;;;;21.30;43.84;100485.69;5067202;28;20074;-49
2022/06/15 21:22:04;;;;;;;7.45;3.55;;;;;;;21.24;43.72;100492.06;5058696;28;20143;-49
2022/06/15 21:24:49;;;;;;;8.20;3.70;;;;;;;21.15;44.25;100500.34;5057800;28;20491;-47
2022/06/15 21:27:16;;;;;;;7.72;3.60;;;;;;;21.09;44.58;100503.19;5064154;28;20438;-49
2022/06/15 21:29:44;;;;;;;5.35;3.45;;;;;;;21.03;44.69;100510.44;5062204;28;20125;-48
2022/06/15 21:32:14;;;;;;;6.57;3.63;;;;;;;20.96;44.42;100501.06;5060047;28;20048;-44
2022/06/15 21:34:42;;;;;;;12.32;4.70;;;;;;;20.90;44.74;100509.19;5061196;28;20052;-46
2022/06/15 21:37:10;;;;;;;7.00;4.20;;;;;;;20.84;44.82;100509.41;5064984;28;20052;-47
2022/06/15 21:39:36;;;;;;;7.28;3.65;;;;;;;20.77;45.23;100501.72;5070380;28;20810;-48
2022/06/15 21:42:04;;;;;;;6.68;3.83;;;;;;;20.73;45.07;100505.41;5084553;28;20059;-49
2022/06/15 21:44:31;;;;;;;5.30;3.85;;;;;;;20.69;45.65;100511.69;5064945;28;20496;-51
2022/06/15 21:47:01;;;;;;;6.63;3.35;;;;;;;20.64;45.85;100511.03;5065054;28;20045;-49
2022/06/15 21:49:31;;;;;;;7.85;4.88;;;;;;;20.59;46.04;100515.59;5063156;28;20535;-48
2022/06/15 21:51:59;;;;;;;5.72;3.40;;;;;;;20.51;45.71;100514.13;5061857;28;20063;-48
2022/06/15 21:54:32;;;;;;;9.93;4.63;;;;;;;20.44;46.02;100523.16;5062447;28;20709;-46
2022/06/15 21:57:02;;;;;;;7.28;4.00;;;;;;;20.38;46.06;100518.97;5058152;28;20069;-45
2022/06/15 21:59:31;;;;;;;6.72;3.85;;;;;;;20.34;46.36;100508.59;5061523;28;20240;-47
2022/06/15 22:01:58;;;;;;;8.52;3.97;;;;;;;20.28;46.42;100510.56;5060531;28;20044;-53
2022/06/15 22:04:25;;;;;;;5.60;4.22;;;;;;;20.23;46.92;100504.59;5061033;28;20056;-48
2022/06/15 22:06:52;;;;;;;12.15;4.50;;;;;;;20.19;47.06;100513.50;5057654;28;20131;-47
2022/06/15 22:09:19;;;;;;;8.00;4.60;;;;;;;20.14;47.20;100507.56;5062425;28;20130;-44
2022/06/15 22:11:45;;;;;;;7.97;5.10;;;;;;;20.11;47.28;100512.91;5065079;28;20052;-47
2022/06/15 22:14:12;;;;;;;7.78;3.88;;;;;;;20.08;47.43;100505.13;5078696;28;20105;-49
2022/06/15 22:16:39;;;;;;;7.57;4.20;;;;;;;20.02;47.83;100512.34;5074082;28;20051;-48
2022/06/15 22:19:06;;;;;;;8.30;3.97;;;;;;;19.96;47.63;100509.88;5072042;28;20044;-50
2022/06/15 22:21:33;;;;;;;8.02;4.38;;;;;;;19.90;48.16;100503.06;5064056;28;20053;-50
2022/06/15 22:23:59;;;;;;;8.75;4.45;;;;;;;19.85;47.71;100504.13;5061923;28;20053;-49
2022/06/15 22:26:28;;;;;;;10.23;5.10;;;;;;;19.78;47.88;100506.97;5060090;28;20061;-48
2022/06/15 22:28:55;;;;;;;8.30;4.65;;;;;;;19.75;47.94;100520.22;5060031;28;20053;-45
2022/06/15 22:31:22;;;;;;;6.90;4.60;;;;;;;19.71;48.22;100523.88;5056154;28;20079;-45
2022/06/15 22:33:49;;;;;;;7.43;4.60;;;;;;;19.68;48.16;100529.22;5054711;28;20055;-45